createdAt,value
2017-11-13T00:01:53.129Z,17.20
2017-11-13T00:04:21.205Z,20.10
2017-11-13T00:06:49.271Z,17.12
2017-11-13T00:09:17.344Z,19.48
2017-11-13T00:11:45.417Z,17.52
2017-11-13T00:14:13.492Z,16.48
2017-11-13T00:16:41.568Z,14.82
2017-11-13T00:19:09.648Z,18.08
2017-11-13T00:21:37.721Z,19.80
2017-11-13T00:24:05.808Z,20.55
2017-11-13T00:26:33.879Z,14.98
2017-11-13T00:29:01.953Z,17.00
2017-11-13T00:31:30.028Z,13.82
2017-11-13T00:33:58.864Z,15.05
2017-11-13T00:36:27.704Z,16.02
2017-11-13T00:38:55.773Z,14.32
2017-11-13T00:41:23.849Z,14.70
2017-11-13T00:43:51.916Z,14.13
2017-11-13T00:46:20.021Z,19.92
2017-11-13T00:48:48.100Z,12.48
2017-11-13T00:51:16.194Z,13.80
2017-11-13T00:53:44.253Z,14.05
2017-11-13T00:56:12.344Z,15.90
2017-11-13T00:58:40.441Z,16.83
2017-11-13T01:01:08.516Z,13.95
2017-11-13T01:03:36.588Z,15.07
2017-11-13T01:06:04.673Z,14.38
2017-11-13T01:08:32.746Z,15.57
2017-11-13T01:11:01.602Z,15.50
2017-11-13T01:13:29.677Z,15.20
2017-11-13T01:15:57.752Z,17.02
2017-11-13T01:18:25.817Z,15.02
2017-11-13T01:20:53.891Z,14.43
2017-11-13T01:23:21.965Z,20.65
2017-11-13T01:25:50.036Z,15.50
2017-11-13T01:28:18.108Z,14.95
2017-11-13T01:30:46.191Z,16.08
2017-11-13T01:33:14.270Z,17.73
2017-11-13T01:35:42.402Z,18.60
2017-11-13T01:38:10.468Z,15.50
2017-11-13T01:40:38.552Z,17.80
2017-11-13T01:43:07.401Z,16.25
2017-11-13T01:45:36.249Z,15.30
2017-11-13T01:48:04.325Z,18.55
2017-11-13T01:50:32.401Z,18.65
2017-11-13T01:53:00.476Z,14.70
2017-11-13T01:55:28.553Z,16.95
2017-11-13T01:57:56.624Z,14.85
2017-11-13T02:00:24.701Z,17.67
2017-11-13T02:02:52.769Z,17.90
2017-11-13T02:05:20.981Z,14.63
2017-11-13T02:07:49.821Z,15.82
2017-11-13T02:10:17.902Z,20.00
2017-11-13T02:12:45.988Z,21.23
2017-11-13T02:15:14.069Z,18.08
2017-11-13T02:17:42.145Z,16.17
2017-11-13T02:20:11.005Z,17.75
2017-11-13T02:22:39.081Z,18.50
2017-11-13T02:25:07.198Z,21.15
2017-11-13T02:27:36.065Z,17.60
2017-11-13T02:30:04.140Z,19.90
2017-11-13T02:32:32.209Z,24.67
2017-11-13T02:35:00.282Z,21.50
2017-11-13T02:37:28.352Z,20.52
2017-11-13T02:39:56.516Z,20.65
2017-11-13T02:42:24.601Z,22.23
2017-11-13T02:44:52.673Z,22.10
2017-11-13T02:47:20.744Z,21.52
2017-11-13T02:49:48.830Z,26.90
2017-11-13T02:52:17.670Z,25.83
2017-11-13T02:54:45.752Z,26.87
2017-11-13T02:57:13.825Z,25.48
2017-11-13T02:59:41.900Z,22.95
2017-11-13T03:02:09.970Z,28.17
2017-11-13T03:04:38.068Z,24.63
2017-11-13T03:07:06.140Z,26.60
2017-11-13T03:09:34.214Z,25.73
2017-11-13T03:12:02.286Z,23.42
2017-11-13T03:14:30.357Z,22.87
2017-11-13T03:16:58.431Z,20.27
2017-11-13T03:19:26.506Z,23.38
2017-11-13T03:21:55.370Z,23.38
2017-11-13T03:24:23.441Z,23.30
2017-11-13T03:26:51.520Z,22.23
2017-11-13T03:29:19.616Z,24.48
2017-11-13T03:31:48.468Z,19.00
2017-11-13T03:34:16.548Z,20.12
2017-11-13T03:36:44.649Z,19.15
2017-11-13T03:39:13.484Z,14.55
2017-11-13T03:41:42.312Z,12.90
2017-11-13T03:44:10.402Z,17.77
2017-11-13T03:46:39.245Z,20.58
2017-11-13T03:49:08.084Z,17.75
2017-11-13T03:51:36.929Z,18.20
2017-11-13T03:54:05.004Z,23.23
2017-11-13T03:56:33.072Z,22.05
2017-11-13T03:59:01.157Z,20.25
2017-11-13T04:01:29.228Z,27.33
2017-11-13T04:03:57.305Z,20.00
2017-11-13T04:06:25.377Z,20.58
2017-11-13T04:08:53.460Z,21.87
2017-11-13T04:11:21.529Z,21.85
2017-11-13T04:13:49.842Z,23.23
2017-11-13T04:16:18.680Z,20.62
2017-11-13T04:18:46.761Z,20.35
2017-11-13T04:21:14.828Z,19.50
2017-11-13T04:23:42.899Z,21.48
2017-11-13T04:26:10.980Z,21.48
2017-11-13T04:28:39.044Z,20.35
2017-11-13T04:31:07.131Z,18.58
2017-11-13T04:33:35.204Z,22.25
2017-11-13T04:36:03.288Z,25.15
2017-11-13T04:38:31.365Z,21.20
2017-11-13T04:41:00.211Z,24.67
2017-11-13T04:43:28.286Z,20.55
2017-11-13T04:45:56.369Z,26.17
2017-11-13T04:48:24.441Z,22.50
2017-11-13T04:50:52.512Z,23.08
2017-11-13T04:53:20.589Z,24.80
2017-11-13T04:55:48.656Z,22.98
2017-11-13T04:58:16.741Z,23.23
2017-11-13T05:00:44.812Z,22.62
2017-11-13T05:03:12.898Z,19.85
2017-11-13T05:05:40.965Z,19.73
2017-11-13T05:08:09.047Z,24.27
2017-11-13T05:10:37.118Z,23.08
2017-11-13T05:13:05.189Z,23.60
2017-11-13T05:15:33.262Z,31.70
2017-11-13T05:18:02.136Z,22.70
2017-11-13T05:20:30.216Z,21.95
2017-11-13T05:22:58.280Z,21.02
2017-11-13T05:25:26.357Z,20.50
2017-11-13T05:27:54.441Z,20.62
2017-11-13T05:30:22.526Z,21.55
2017-11-13T05:32:51.370Z,21.92
2017-11-13T05:35:19.666Z,20.92
2017-11-13T05:37:47.736Z,22.23
2017-11-13T05:40:15.812Z,21.50
2017-11-13T05:42:43.888Z,23.17
2017-11-13T05:45:11.974Z,30.77
2017-11-13T05:47:40.809Z,21.77
2017-11-13T05:50:09.668Z,23.40
2017-11-13T05:52:38.528Z,21.15
2017-11-13T05:55:06.605Z,25.02
2017-11-13T05:57:34.685Z,19.58
2017-11-13T06:00:02.748Z,20.70
2017-11-13T06:02:30.829Z,24.95
2017-11-13T06:04:58.893Z,19.10
2017-11-13T06:07:26.973Z,20.85
2017-11-13T06:09:55.038Z,19.70
2017-11-13T06:12:23.172Z,22.73
2017-11-13T06:14:51.246Z,21.52
2017-11-13T06:17:19.345Z,24.58
2017-11-13T06:19:47.406Z,21.42
2017-11-13T06:22:15.479Z,23.75
2017-11-13T06:24:43.681Z,23.45
2017-11-13T06:27:11.753Z,22.65
2017-11-13T06:29:39.884Z,24.58
2017-11-13T06:32:07.963Z,22.52
2017-11-13T06:34:36.046Z,17.48
2017-11-13T06:37:04.116Z,23.40
2017-11-13T06:39:32.206Z,22.95
2017-11-13T06:42:00.294Z,21.40
2017-11-13T06:44:29.149Z,25.85
2017-11-13T06:46:57.229Z,24.73
2017-11-13T06:49:25.313Z,24.15
2017-11-13T06:51:53.408Z,20.27
2017-11-13T06:54:22.241Z,20.65
2017-11-13T06:56:50.327Z,18.85
2017-11-13T06:59:18.409Z,17.75
2017-11-13T07:01:46.480Z,20.30
2017-11-13T07:04:14.553Z,18.30
2017-11-13T07:06:42.647Z,22.33
2017-11-13T07:09:11.500Z,18.23
2017-11-13T07:11:40.341Z,19.95
2017-11-13T07:14:09.179Z,17.95
2017-11-13T07:16:37.270Z,22.13
2017-11-13T07:19:05.341Z,17.15
2017-11-13T07:21:33.434Z,19.95
2017-11-13T07:24:01.507Z,17.87
2017-11-13T07:26:29.581Z,22.83
2017-11-13T07:28:57.662Z,24.58
2017-11-13T07:31:26.510Z,17.17
2017-11-13T07:33:54.588Z,19.52
2017-11-13T07:36:22.661Z,18.08
2017-11-13T07:38:53.665Z,16.35
2017-11-13T07:41:21.743Z,17.67
2017-11-13T07:43:49.860Z,16.55
2017-11-13T07:46:17.928Z,15.45
2017-11-13T07:48:46.017Z,14.73
2017-11-13T07:51:14.079Z,17.98
2017-11-13T07:53:42.163Z,16.15
2017-11-13T07:56:10.232Z,15.60
2017-11-13T07:58:38.333Z,13.68
2017-11-13T08:01:06.402Z,16.98
2017-11-13T08:03:35.240Z,16.62
2017-11-13T08:06:03.316Z,16.52
2017-11-13T08:08:31.395Z,16.23
2017-11-13T08:10:59.556Z,11.35
2017-11-13T08:13:28.157Z,16.83
2017-11-13T08:15:56.245Z,12.30
2017-11-13T08:18:24.314Z,12.40
2017-11-13T08:20:52.421Z,17.08
2017-11-13T08:23:21.234Z,10.50
2017-11-13T08:25:49.299Z,11.93
2017-11-13T08:28:18.153Z,17.40
2017-11-13T08:30:47.007Z,18.73
2017-11-13T08:33:15.113Z,9.50
2017-11-13T08:35:43.970Z,10.00
2017-11-13T08:38:12.069Z,10.32
2017-11-13T08:40:40.168Z,10.60
2017-11-13T08:43:09.005Z,9.52
2017-11-13T08:45:37.085Z,8.50
2017-11-13T08:48:05.160Z,7.32
2017-11-13T08:50:33.226Z,9.27
2017-11-13T08:53:01.294Z,8.52
2017-11-13T08:55:29.370Z,10.63
2017-11-13T08:57:57.457Z,8.63
2017-11-13T09:00:25.540Z,16.00
2017-11-13T09:02:54.401Z,14.80
2017-11-13T09:05:23.084Z,9.13
2017-11-13T09:07:51.181Z,12.77
2017-11-13T09:10:19.250Z,9.82
2017-11-13T09:12:47.328Z,9.85
2017-11-13T09:15:15.397Z,9.68
2017-11-13T09:17:43.463Z,7.93
2017-11-13T09:20:11.549Z,8.30
2017-11-13T09:22:39.624Z,9.38
2017-11-13T09:25:07.680Z,7.95
2017-11-13T09:27:35.764Z,10.85
2017-11-13T09:30:04.615Z,8.48
2017-11-13T09:32:32.697Z,9.10
2017-11-13T09:35:00.785Z,10.05
2017-11-13T09:37:28.852Z,7.97
2017-11-13T09:39:56.944Z,11.70
2017-11-13T09:42:25.986Z,15.15
2017-11-13T09:44:54.058Z,11.45
2017-11-13T09:47:22.161Z,9.40
2017-11-13T09:49:50.292Z,11.12
2017-11-13T09:52:18.361Z,8.27
2017-11-13T09:54:46.426Z,11.12
2017-11-13T09:57:14.506Z,10.68
2017-11-13T09:59:42.601Z,13.35
2017-11-13T10:02:11.449Z,9.45
2017-11-13T10:04:40.297Z,9.73
2017-11-13T10:07:08.386Z,7.00
2017-11-13T10:09:36.444Z,8.15
2017-11-13T10:12:04.521Z,8.40
2017-11-13T10:14:32.596Z,7.57
2017-11-13T10:17:00.677Z,8.32
2017-11-13T10:19:28.760Z,11.95
2017-11-13T10:21:56.832Z,11.05
2017-11-13T10:24:25.672Z,7.75
2017-11-13T10:26:53.756Z,11.65
2017-11-13T10:29:21.825Z,10.15
2017-11-13T10:31:50.648Z,9.05
2017-11-13T10:34:18.724Z,10.40
2017-11-13T10:36:46.788Z,6.60
2017-11-13T10:39:14.886Z,5.75
2017-11-13T10:41:43.749Z,5.28
2017-11-13T10:44:11.817Z,4.87
2017-11-13T10:46:39.893Z,8.13
2017-11-13T10:49:08.114Z,12.88
2017-11-13T10:51:36.973Z,8.98
2017-11-13T10:54:05.749Z,7.90
2017-11-13T10:56:33.828Z,9.48
2017-11-13T10:59:01.893Z,7.18
2017-11-13T11:01:29.978Z,5.47
2017-11-13T11:03:58.042Z,5.28
2017-11-13T11:06:26.125Z,6.50
2017-11-13T11:08:55.093Z,6.32
2017-11-13T11:11:23.241Z,7.15
2017-11-13T11:13:51.618Z,7.12
2017-11-13T11:16:33.823Z,9.63
2017-11-13T11:19:01.891Z,8.75
2017-11-13T11:21:30.484Z,5.75
2017-11-13T11:23:58.553Z,6.22
2017-11-13T11:26:29.999Z,4.18
2017-11-13T11:29:08.062Z,5.12
2017-11-13T11:31:39.672Z,5.68
2017-11-13T11:34:08.213Z,5.15
2017-11-13T11:36:50.807Z,6.65
2017-11-13T11:39:18.876Z,8.18
2017-11-13T11:41:46.946Z,5.22
2017-11-13T11:44:27.119Z,5.68
2017-11-13T11:46:55.961Z,5.40
2017-11-13T11:49:24.038Z,5.15
2017-11-13T11:51:52.118Z,4.28
2017-11-13T11:54:21.116Z,3.70
2017-11-13T11:57:04.060Z,2.70
2017-11-13T11:59:32.895Z,7.03
2017-11-13T12:02:00.980Z,3.87
2017-11-13T12:04:29.064Z,3.87
2017-11-13T12:06:57.142Z,2.83
2017-11-13T12:09:25.222Z,3.42
2017-11-13T12:11:53.505Z,8.55
2017-11-13T12:14:21.584Z,3.78
2017-11-13T12:16:49.716Z,4.97
2017-11-13T12:19:17.801Z,3.60
2017-11-13T12:21:45.872Z,8.75
2017-11-13T12:24:13.945Z,5.70
2017-11-13T12:26:42.023Z,4.55
2017-11-13T12:29:10.097Z,3.83
2017-11-13T12:31:38.164Z,5.32
2017-11-13T12:34:06.232Z,7.93
2017-11-13T12:36:34.306Z,4.77
2017-11-13T12:39:02.504Z,10.10
2017-11-13T12:41:30.573Z,3.30
2017-11-13T12:43:58.671Z,3.70
2017-11-13T12:46:27.518Z,4.70
2017-11-13T12:48:55.588Z,4.30
2017-11-13T12:51:24.348Z,8.10
2017-11-13T12:53:52.440Z,5.40
2017-11-13T12:56:20.521Z,5.20
2017-11-13T12:58:59.503Z,5.45
2017-11-13T13:01:27.577Z,8.40
2017-11-13T13:03:56.434Z,9.30
2017-11-13T13:06:24.917Z,5.90
2017-11-13T13:08:52.989Z,4.30
2017-11-13T13:11:21.066Z,6.80
2017-11-13T13:13:49.179Z,9.57
2017-11-13T13:16:17.285Z,7.13
2017-11-13T13:18:45.353Z,4.20
2017-11-13T13:21:14.265Z,5.10
2017-11-13T13:23:42.356Z,5.13
2017-11-13T13:26:12.381Z,7.57
2017-11-13T13:28:41.996Z,4.75
2017-11-13T13:31:10.833Z,4.65
2017-11-13T13:33:39.025Z,4.57
2017-11-13T13:36:07.135Z,3.77
2017-11-13T13:38:35.211Z,14.23
2017-11-13T13:41:04.253Z,8.67
2017-11-13T13:43:32.333Z,4.43
2017-11-13T13:46:00.393Z,4.07
2017-11-13T13:48:28.465Z,6.17
2017-11-13T13:50:56.536Z,6.20
2017-11-13T13:53:24.613Z,9.37
2017-11-13T13:55:52.685Z,7.03
2017-11-13T13:58:20.765Z,4.03
2017-11-13T14:00:48.828Z,3.60
2017-11-13T14:03:16.898Z,4.50
2017-11-13T14:05:44.973Z,5.40
2017-11-13T14:08:13.852Z,10.55
2017-11-13T14:10:41.928Z,4.07
2017-11-13T14:13:10.027Z,5.82
2017-11-13T14:15:48.064Z,3.75
2017-11-13T14:18:16.924Z,6.12
2017-11-13T14:20:44.997Z,3.03
2017-11-13T14:23:13.065Z,4.18
2017-11-13T14:25:41.179Z,6.05
2017-11-13T14:28:09.294Z,3.70
2017-11-13T14:30:37.381Z,6.72
2017-11-13T14:33:05.458Z,3.58
2017-11-13T14:35:33.543Z,3.55
2017-11-13T14:38:01.613Z,3.37
2017-11-13T14:40:29.749Z,4.07
2017-11-13T14:42:57.815Z,6.55
2017-11-13T14:45:25.900Z,6.18
2017-11-13T14:47:54.050Z,5.40
2017-11-13T14:50:22.133Z,5.07
2017-11-13T14:52:50.205Z,3.83
2017-11-13T14:55:19.108Z,3.05
2017-11-13T14:57:47.219Z,4.65
2017-11-13T15:00:15.260Z,3.20
2017-11-13T15:02:43.413Z,4.05
2017-11-13T15:05:12.232Z,3.10
2017-11-13T15:07:40.313Z,6.12
2017-11-13T15:10:08.381Z,7.62
2017-11-13T15:12:36.483Z,3.72
2017-11-13T15:15:05.316Z,3.15
2017-11-13T15:17:33.384Z,2.85
2017-11-13T15:20:01.458Z,3.47
2017-11-13T15:22:29.556Z,2.53
2017-11-13T15:24:57.629Z,4.57
2017-11-13T15:27:25.701Z,3.35
2017-11-13T15:29:53.793Z,3.47
2017-11-13T15:32:21.856Z,5.00
2017-11-13T15:34:49.936Z,3.28
2017-11-13T15:37:18.835Z,5.40
2017-11-13T15:39:47.673Z,6.68
2017-11-13T15:42:15.731Z,15.70
2017-11-13T15:44:43.822Z,10.15
2017-11-13T15:47:11.992Z,9.65
2017-11-13T15:49:40.063Z,6.68
2017-11-13T15:52:08.149Z,5.95
2017-11-13T15:54:36.302Z,5.30
2017-11-13T15:57:05.200Z,6.60
2017-11-13T15:59:33.299Z,5.90
2017-11-13T16:02:01.380Z,7.65
2017-11-13T16:04:29.440Z,10.15
2017-11-13T16:06:57.538Z,10.35
2017-11-13T16:09:26.367Z,7.45
2017-11-13T16:11:55.221Z,9.52
2017-11-13T16:14:24.065Z,11.88
2017-11-13T16:16:52.140Z,11.73
2017-11-13T16:19:20.215Z,13.77
2017-11-13T16:21:48.415Z,9.88
2017-11-13T16:24:16.483Z,11.15
2017-11-13T16:26:44.556Z,7.85
2017-11-13T16:29:12.628Z,6.00
2017-11-13T16:31:40.779Z,7.20
2017-11-13T16:34:09.664Z,12.55
2017-11-13T16:36:37.754Z,25.10
2017-11-13T16:39:05.847Z,25.30
2017-11-13T16:41:33.916Z,18.75
2017-11-13T16:44:01.993Z,20.65
2017-11-13T16:46:30.833Z,21.00
2017-11-13T16:48:59.676Z,19.90
2017-11-13T16:51:28.617Z,16.52
2017-11-13T16:53:56.704Z,12.15
2017-11-13T16:56:24.776Z,10.25
2017-11-13T16:58:52.912Z,7.30
2017-11-13T17:01:20.972Z,8.30
2017-11-13T17:03:49.818Z,49.25
2017-11-13T17:06:17.889Z,24.80
2017-11-13T17:08:45.976Z,11.80
2017-11-13T17:11:14.064Z,15.38
2017-11-13T17:13:42.180Z,9.52
2017-11-13T17:16:10.253Z,11.05
2017-11-13T17:18:38.324Z,7.50
2017-11-13T17:21:06.413Z,10.80
2017-11-13T17:23:34.494Z,8.38
2017-11-13T17:26:02.592Z,18.20
2017-11-13T17:28:30.668Z,22.62
2017-11-13T17:30:58.740Z,23.02
2017-11-13T17:33:26.814Z,28.95
2017-11-13T17:35:54.884Z,24.83
2017-11-13T17:38:22.957Z,23.05
2017-11-13T17:40:51.027Z,24.67
2017-11-13T17:43:19.101Z,23.42
2017-11-13T17:45:48.184Z,24.30
2017-11-13T17:48:16.254Z,33.97
2017-11-13T17:50:44.329Z,29.10
2017-11-13T17:53:12.401Z,44.63
2017-11-13T17:55:40.469Z,37.75
2017-11-13T17:58:08.545Z,40.10
2017-11-13T18:00:36.617Z,41.05
2017-11-13T18:03:04.700Z,30.15
2017-11-13T18:05:32.760Z,33.88
2017-11-13T18:08:00.835Z,33.00
2017-11-13T18:10:28.913Z,34.45
2017-11-13T18:12:56.980Z,33.13
2017-11-13T18:15:25.053Z,31.37
2017-11-13T18:17:53.148Z,27.10
2017-11-13T18:20:21.988Z,22.17
2017-11-13T18:22:50.052Z,18.10
2017-11-13T18:25:18.164Z,25.35
2017-11-13T18:27:46.224Z,18.67
2017-11-13T18:30:14.295Z,14.23
2017-11-13T18:32:42.374Z,14.07
2017-11-13T18:35:10.455Z,17.65
2017-11-13T18:37:38.560Z,17.62
2017-11-13T18:40:06.641Z,17.08
2017-11-13T18:42:34.704Z,16.85
2017-11-13T18:45:02.817Z,14.13
2017-11-13T18:47:30.888Z,14.45
2017-11-13T18:49:58.964Z,17.27
2017-11-13T18:52:27.036Z,17.02
2017-11-13T18:54:55.100Z,17.37
2017-11-13T18:57:23.181Z,25.02
2017-11-13T18:59:51.253Z,25.35
2017-11-13T19:02:19.333Z,23.42
2017-11-13T19:04:47.403Z,24.35
2017-11-13T19:07:15.492Z,41.75
2017-11-13T19:09:43.564Z,20.35
2017-11-13T19:12:11.801Z,21.67
2017-11-13T19:14:39.878Z,22.77
2017-11-13T19:17:07.944Z,25.55
2017-11-13T19:19:36.788Z,26.65
2017-11-13T19:22:05.649Z,23.73
2017-11-13T19:24:33.765Z,26.95
2017-11-13T19:27:01.837Z,31.25
2017-11-13T19:29:29.916Z,29.00
2017-11-13T19:31:57.998Z,26.98
2017-11-13T19:34:26.100Z,25.65
2017-11-13T19:36:54.168Z,25.55
2017-11-13T19:39:22.253Z,23.95
2017-11-13T19:41:50.341Z,26.67
2017-11-13T19:44:18.412Z,25.83
2017-11-13T19:46:46.498Z,24.37
2017-11-13T19:49:15.332Z,23.60
2017-11-13T19:51:43.399Z,29.33
2017-11-13T19:54:11.455Z,31.48
2017-11-13T19:56:39.543Z,31.60
2017-11-13T19:59:07.619Z,25.75
2017-11-13T20:01:36.482Z,23.12
2017-11-13T20:04:05.326Z,37.22
2017-11-13T20:06:33.397Z,23.50
2017-11-13T20:09:01.481Z,22.45
2017-11-13T20:11:30.471Z,27.85
2017-11-13T20:13:58.560Z,20.67
2017-11-13T20:16:26.615Z,15.13
2017-11-13T20:18:54.690Z,23.23
2017-11-13T20:21:22.751Z,27.62
2017-11-13T20:23:50.832Z,23.12
2017-11-13T20:26:18.917Z,24.05
2017-11-13T20:28:47.014Z,14.43
2017-11-13T20:31:15.856Z,24.77
2017-11-13T20:33:43.952Z,21.80
2017-11-13T20:36:12.018Z,20.40
2017-11-13T20:38:40.091Z,16.83
2017-11-13T20:41:08.169Z,24.40
2017-11-13T20:43:36.241Z,19.80
2017-11-13T20:46:04.321Z,23.67
2017-11-13T20:48:32.383Z,29.25
2017-11-13T20:51:00.461Z,28.50
2017-11-13T20:53:28.545Z,28.35
2017-11-13T20:55:57.384Z,32.72
2017-11-13T20:58:25.465Z,33.05
2017-11-13T21:00:53.536Z,24.80
2017-11-13T21:03:21.636Z,28.38
2017-11-13T21:05:49.695Z,21.73
2017-11-13T21:08:17.772Z,22.37
2017-11-13T21:10:45.856Z,23.83
2017-11-13T21:13:13.927Z,26.70
2017-11-13T21:15:41.992Z,19.15
2017-11-13T21:18:10.068Z,22.62
2017-11-13T21:20:38.140Z,27.62
2017-11-13T21:23:06.216Z,28.05
2017-11-13T21:25:34.292Z,25.42
2017-11-13T21:28:02.384Z,24.63
2017-11-13T21:30:31.225Z,23.83
2017-11-13T21:32:59.312Z,27.20
2017-11-13T21:35:28.216Z,26.33
2017-11-13T21:37:57.075Z,24.80
2017-11-13T21:40:25.150Z,23.50
2017-11-13T21:42:53.258Z,23.27
2017-11-13T21:45:22.422Z,24.33
2017-11-13T21:47:50.492Z,25.02
2017-11-13T21:50:18.564Z,34.92
2017-11-13T21:52:46.661Z,31.75
2017-11-13T21:55:14.719Z,27.95
2017-11-13T21:57:42.792Z,25.85
2017-11-13T22:00:10.873Z,26.35
2017-11-13T22:02:38.950Z,27.58
2017-11-13T22:05:07.029Z,21.98
2017-11-13T22:07:35.089Z,23.65
2017-11-13T22:10:03.195Z,28.33
2017-11-13T22:12:31.269Z,29.10
2017-11-13T22:14:59.382Z,33.38
2017-11-13T22:17:27.459Z,34.35
2017-11-13T22:19:55.557Z,31.80
2017-11-13T22:22:23.634Z,32.85
2017-11-13T22:24:51.714Z,54.80
2017-11-13T22:27:20.552Z,41.28
2017-11-13T22:29:48.644Z,43.97
2017-11-13T22:32:16.709Z,32.03
2017-11-13T22:34:44.793Z,45.83
2017-11-13T22:37:12.856Z,35.15
2017-11-13T22:39:40.941Z,33.28
2017-11-13T22:42:09.045Z,47.78
2017-11-13T22:44:37.904Z,37.20
2017-11-13T22:47:05.977Z,26.55
2017-11-13T22:49:35.043Z,32.53
2017-11-13T22:52:03.129Z,29.35
2017-11-13T22:54:31.201Z,24.52
2017-11-13T22:57:00.176Z,33.83
2017-11-13T22:59:28.244Z,29.50
2017-11-13T23:01:56.377Z,20.35
2017-11-13T23:04:25.123Z,30.27
2017-11-13T23:06:53.200Z,28.42
2017-11-13T23:09:21.264Z,32.28
2017-11-13T23:11:49.567Z,30.20
2017-11-13T23:14:17.639Z,86.55
2017-11-13T23:16:45.712Z,28.60
2017-11-13T23:19:13.793Z,51.72
2017-11-13T23:21:41.863Z,27.25
2017-11-13T23:24:09.940Z,26.40
2017-11-13T23:26:38.013Z,50.35
2017-11-13T23:29:06.117Z,41.28
2017-11-13T23:31:34.176Z,85.25
2017-11-13T23:34:03.038Z,45.63
2017-11-13T23:36:31.105Z,68.07
2017-11-13T23:38:59.189Z,38.88
2017-11-13T23:41:27.268Z,119.00
2017-11-13T23:43:56.144Z,41.53
2017-11-13T23:46:24.244Z,37.83
2017-11-13T23:48:53.081Z,51.45
2017-11-13T23:51:21.160Z,56.80
2017-11-13T23:53:49.233Z,128.73
2017-11-13T23:56:17.322Z,114.05
2017-11-13T23:58:45.389Z,74.62
